sensor_id;sensor_type;location;lat;lon;timestamp;temperature;humidity
18717;DHT22;9487;50.892;6.906;2023-08-12T00:01:22;21.10;99.90
18717;DHT22;9487;50.892;6.906;2023-08-12T00:03:50;21.20;99.90
18717;DHT22;9487;50.892;6.906;2023-08-12T00:06:18;21.20;99.90
18717;DHT22;9487;50.892;6.906;2023-08-12T00:08:45;21.30;99.90
18717;DHT22;9487;50.892;6.906;2023-08-12T00:11:15;21.40;99.90
18717;DHT22;9487;50.892;6.906;2023-08-12T00:13:42;21.30;99.90
18717;DHT22;9487;50.892;6.906;2023-08-12T00:16:10;21.20;99.90
18717;DHT22;9487;50.892;6.906;2023-08-12T00:18:37;21.20;99.90
18717;DHT22;9487;50.892;6.906;2023-08-12T00:21:07;21.20;99.90
18717;DHT22;9487;50.892;6.906;2023-08-12T00:23:38;21.10;99.90
18717;DHT22;9487;50.892;6.906;2023-08-12T00:26:07;21.10;99.90
18717;DHT22;9487;50.892;6.906;2023-08-12T00:28:35;21.20;99.90
18717;DHT22;9487;50.892;6.906;2023-08-12T00:31:03;21.20;99.90
18717;DHT22;9487;50.892;6.906;2023-08-12T00:33:34;21.30;99.90
18717;DHT22;9487;50.892;6.906;2023-08-12T00:36:02;21.30;99.90
18717;DHT22;9487;50.892;6.906;2023-08-12T00:38:29;21.40;99.90
18717;DHT22;9487;50.892;6.906;2023-08-12T00:40:56;21.40;99.90
18717;DHT22;9487;50.892;6.906;2023-08-12T00:43:24;21.40;99.90
18717;DHT22;9487;50.892;6.906;2023-08-12T00:45:52;21.40;99.90
18717;DHT22;9487;50.892;6.906;2023-08-12T00:48:20;21.40;99.90
18717;DHT22;9487;50.892;6.906;2023-08-12T00:50:50;21.40;99.90
18717;DHT22;9487;50.892;6.906;2023-08-12T00:53:18;21.40;99.90
18717;DHT22;9487;50.892;6.906;2023-08-12T00:55:45;21.40;99.90
18717;DHT22;9487;50.892;6.906;2023-08-12T00:58:13;21.40;99.90
18717;DHT22;9487;50.892;6.906;2023-08-12T01:00:40;21.30;99.90
18717;DHT22;9487;50.892;6.906;2023-08-12T01:03:07;21.30;99.90
18717;DHT22;9487;50.892;6.906;2023-08-12T01:05:34;21.30;99.90
18717;DHT22;9487;50.892;6.906;2023-08-12T01:08:04;21.40;99.90
18717;DHT22;9487;50.892;6.906;2023-08-12T01:10:34;21.40;99.90
18717;DHT22;9487;50.892;6.906;2023-08-12T01:13:08;21.40;99.90
18717;DHT22;9487;50.892;6.906;2023-08-12T01:15:38;21.40;99.90
18717;DHT22;9487;50.892;6.906;2023-08-12T01:18:06;21.40;99.90
18717;DHT22;9487;50.892;6.906;2023-08-12T01:20:35;21.40;99.90
18717;DHT22;9487;50.892;6.906;2023-08-12T01:23:10;21.30;99.90
18717;DHT22;9487;50.892;6.906;2023-08-12T01:25:40;21.30;99.90
18717;DHT22;9487;50.892;6.906;2023-08-12T01:28:08;21.40;99.90
18717;DHT22;9487;50.892;6.906;2023-08-12T01:30:39;21.40;99.90
18717;DHT22;9487;50.892;6.906;2023-08-12T01:33:11;21.30;99.90
18717;DHT22;9487;50.892;6.906;2023-08-12T01:35:45;21.40;99.90
18717;DHT22;9487;50.892;6.906;2023-08-12T01:38:16;21.40;99.90
18717;DHT22;9487;50.892;6.906;2023-08-12T01:40:45;21.40;99.90
18717;DHT22;9487;50.892;6.906;2023-08-12T01:43:13;21.40;99.90
18717;DHT22;9487;50.892;6.906;2023-08-12T01:45:44;21.30;99.90
18717;DHT22;9487;50.892;6.906;2023-08-12T01:48:12;21.30;99.90
18717;DHT22;9487;50.892;6.906;2023-08-12T01:50:40;21.30;99.90
18717;DHT22;9487;50.892;6.906;2023-08-12T01:53:12;21.30;99.90
18717;DHT22;9487;50.892;6.906;2023-08-12T01:55:43;21.40;99.90
18717;DHT22;9487;50.892;6.906;2023-08-12T01:58:12;21.40;99.90
18717;DHT22;9487;50.892;6.906;2023-08-12T02:00:40;21.40;99.90
18717;DHT22;9487;50.892;6.906;2023-08-12T02:03:08;21.30;99.90
18717;DHT22;9487;50.892;6.906;2023-08-12T02:05:36;21.40;99.90
18717;DHT22;9487;50.892;6.906;2023-08-12T02:08:04;21.40;99.90
18717;DHT22;9487;50.892;6.906;2023-08-12T02:10:32;21.30;99.90
18717;DHT22;9487;50.892;6.906;2023-08-12T02:13:01;21.30;99.90
18717;DHT22;9487;50.892;6.906;2023-08-12T02:15:28;21.40;99.90
18717;DHT22;9487;50.892;6.906;2023-08-12T02:17:56;21.30;99.90
18717;DHT22;9487;50.892;6.906;2023-08-12T02:20:23;21.30;99.90
18717;DHT22;9487;50.892;6.906;2023-08-12T02:22:50;21.30;99.90
18717;DHT22;9487;50.892;6.906;2023-08-12T02:25:17;21.30;99.90
18717;DHT22;9487;50.892;6.906;2023-08-12T02:27:44;21.20;99.90
18717;DHT22;9487;50.892;6.906;2023-08-12T02:30:13;21.30;99.90
18717;DHT22;9487;50.892;6.906;2023-08-12T02:32:40;21.30;99.90
18717;DHT22;9487;50.892;6.906;2023-08-12T02:35:09;21.20;99.90
18717;DHT22;9487;50.892;6.906;2023-08-12T02:37:37;21.20;99.90
18717;DHT22;9487;50.892;6.906;2023-08-12T02:40:05;21.20;99.90
18717;DHT22;9487;50.892;6.906;2023-08-12T02:42:33;21.20;99.90
18717;DHT22;9487;50.892;6.906;2023-08-12T02:45:00;21.20;99.90
18717;DHT22;9487;50.892;6.906;2023-08-12T02:47:29;21.20;99.90
18717;DHT22;9487;50.892;6.906;2023-08-12T02:49:57;21.20;99.90
18717;DHT22;9487;50.892;6.906;2023-08-12T02:52:24;21.20;99.90
18717;DHT22;9487;50.892;6.906;2023-08-12T02:54:51;21.20;99.90
18717;DHT22;9487;50.892;6.906;2023-08-12T02:57:22;21.10;99.90
18717;DHT22;9487;50.892;6.906;2023-08-12T02:59:48;21.20;99.90
18717;DHT22;9487;50.892;6.906;2023-08-12T03:02:16;21.10;99.90
18717;DHT22;9487;50.892;6.906;2023-08-12T03:04:45;21.10;99.90
18717;DHT22;9487;50.892;6.906;2023-08-12T03:07:11;21.20;99.90
18717;DHT22;9487;50.892;6.906;2023-08-12T03:09:39;21.10;99.90
18717;DHT22;9487;50.892;6.906;2023-08-12T03:12:07;21.10;99.90
18717;DHT22;9487;50.892;6.906;2023-08-12T03:14:34;21.20;99.90
18717;DHT22;9487;50.892;6.906;2023-08-12T03:17:01;21.20;99.90
18717;DHT22;9487;50.892;6.906;2023-08-12T03:19:29;21.10;99.90
18717;DHT22;9487;50.892;6.906;2023-08-12T03:21:58;21.10;99.90
18717;DHT22;9487;50.892;6.906;2023-08-12T03:24:25;21.10;99.90
18717;DHT22;9487;50.892;6.906;2023-08-12T03:26:52;21.10;99.90
18717;DHT22;9487;50.892;6.906;2023-08-12T03:29:19;21.10;99.90
18717;DHT22;9487;50.892;6.906;2023-08-12T03:31:46;21.20;99.90
18717;DHT22;9487;50.892;6.906;2023-08-12T03:34:44;21.20;99.90
18717;DHT22;9487;50.892;6.906;2023-08-12T03:37:14;21.20;99.90
18717;DHT22;9487;50.892;6.906;2023-08-12T03:39:43;21.10;99.90
18717;DHT22;9487;50.892;6.906;2023-08-12T03:42:11;21.10;99.90
18717;DHT22;9487;50.892;6.906;2023-08-12T03:44:38;21.00;99.90
18717;DHT22;9487;50.892;6.906;2023-08-12T03:47:05;21.00;99.90
18717;DHT22;9487;50.892;6.906;2023-08-12T03:49:32;20.90;99.90
18717;DHT22;9487;50.892;6.906;2023-08-12T03:51:59;20.90;99.90
18717;DHT22;9487;50.892;6.906;2023-08-12T03:54:29;20.80;99.90
18717;DHT22;9487;50.892;6.906;2023-08-12T03:56:56;20.80;99.90
18717;DHT22;9487;50.892;6.906;2023-08-12T03:59:23;20.70;99.90
18717;DHT22;9487;50.892;6.906;2023-08-12T04:01:50;20.70;99.90
18717;DHT22;9487;50.892;6.906;2023-08-12T04:04:17;20.60;99.90
18717;DHT22;9487;50.892;6.906;2023-08-12T04:06:44;20.60;99.90
18717;DHT22;9487;50.892;6.906;2023-08-12T04:09:13;20.60;99.90
18717;DHT22;9487;50.892;6.906;2023-08-12T04:11:42;20.50;99.90
18717;DHT22;9487;50.892;6.906;2023-08-12T04:14:10;20.50;99.90
18717;DHT22;9487;50.892;6.906;2023-08-12T04:16:38;20.60;99.90
18717;DHT22;9487;50.892;6.906;2023-08-12T04:19:05;20.60;99.90
18717;DHT22;9487;50.892;6.906;2023-08-12T04:21:33;20.50;99.90
18717;DHT22;9487;50.892;6.906;2023-08-12T04:24:00;20.60;99.90
18717;DHT22;9487;50.892;6.906;2023-08-12T04:26:29;20.50;99.90
18717;DHT22;9487;50.892;6.906;2023-08-12T04:28:57;20.40;99.90
18717;DHT22;9487;50.892;6.906;2023-08-12T04:31:26;20.40;99.90
18717;DHT22;9487;50.892;6.906;2023-08-12T04:33:53;20.40;99.90
18717;DHT22;9487;50.892;6.906;2023-08-12T04:36:20;20.40;99.90
18717;DHT22;9487;50.892;6.906;2023-08-12T04:38:47;20.40;99.90
18717;DHT22;9487;50.892;6.906;2023-08-12T04:41:14;20.40;99.90
18717;DHT22;9487;50.892;6.906;2023-08-12T04:43:41;20.50;99.90
18717;DHT22;9487;50.892;6.906;2023-08-12T04:46:09;20.50;99.90
18717;DHT22;9487;50.892;6.906;2023-08-12T04:48:36;20.50;99.90
18717;DHT22;9487;50.892;6.906;2023-08-12T04:51:04;20.50;99.90
18717;DHT22;9487;50.892;6.906;2023-08-12T04:53:33;20.50;99.90
18717;DHT22;9487;50.892;6.906;2023-08-12T04:56:00;20.60;99.90
18717;DHT22;9487;50.892;6.906;2023-08-12T04:58:27;20.60;99.90
18717;DHT22;9487;50.892;6.906;2023-08-12T05:00:55;20.60;99.90
18717;DHT22;9487;50.892;6.906;2023-08-12T05:03:23;20.70;99.90
18717;DHT22;9487;50.892;6.906;2023-08-12T05:05:50;20.80;99.90
18717;DHT22;9487;50.892;6.906;2023-08-12T05:08:18;20.90;99.90
18717;DHT22;9487;50.892;6.906;2023-08-12T05:10:47;21.00;99.90
18717;DHT22;9487;50.892;6.906;2023-08-12T05:13:14;21.10;99.90
18717;DHT22;9487;50.892;6.906;2023-08-12T05:15:41;21.10;99.90
18717;DHT22;9487;50.892;6.906;2023-08-12T05:18:09;21.10;99.90
18717;DHT22;9487;50.892;6.906;2023-08-12T05:20:39;21.10;99.90
18717;DHT22;9487;50.892;6.906;2023-08-12T05:23:06;21.10;99.90
18717;DHT22;9487;50.892;6.906;2023-08-12T05:25:35;21.10;99.90
18717;DHT22;9487;50.892;6.906;2023-08-12T05:28:03;21.20;99.90
18717;DHT22;9487;50.892;6.906;2023-08-12T05:30:30;21.20;99.90
18717;DHT22;9487;50.892;6.906;2023-08-12T05:32:57;21.20;99.90
18717;DHT22;9487;50.892;6.906;2023-08-12T05:35:27;21.20;99.90
18717;DHT22;9487;50.892;6.906;2023-08-12T05:37:55;21.20;99.90
18717;DHT22;9487;50.892;6.906;2023-08-12T05:40:24;21.20;99.90
18717;DHT22;9487;50.892;6.906;2023-08-12T05:42:52;21.20;99.90
18717;DHT22;9487;50.892;6.906;2023-08-12T05:45:19;21.20;99.90
18717;DHT22;9487;50.892;6.906;2023-08-12T05:47:47;21.30;99.90
18717;DHT22;9487;50.892;6.906;2023-08-12T05:50:14;21.30;99.90
18717;DHT22;9487;50.892;6.906;2023-08-12T05:52:41;21.20;99.90
18717;DHT22;9487;50.892;6.906;2023-08-12T05:55:10;21.20;99.90
18717;DHT22;9487;50.892;6.906;2023-08-12T05:57:37;21.10;99.90
18717;DHT22;9487;50.892;6.906;2023-08-12T06:00:05;21.10;99.90
18717;DHT22;9487;50.892;6.906;2023-08-12T06:02:32;21.10;99.90
18717;DHT22;9487;50.892;6.906;2023-08-12T06:05:01;21.00;99.90
18717;DHT22;9487;50.892;6.906;2023-08-12T06:07:28;21.00;99.90
18717;DHT22;9487;50.892;6.906;2023-08-12T06:09:55;21.00;99.90
18717;DHT22;9487;50.892;6.906;2023-08-12T06:12:24;20.90;99.90
18717;DHT22;9487;50.892;6.906;2023-08-12T06:14:52;21.00;99.90
18717;DHT22;9487;50.892;6.906;2023-08-12T06:17:19;21.00;99.90
18717;DHT22;9487;50.892;6.906;2023-08-12T06:19:46;20.90;99.90
18717;DHT22;9487;50.892;6.906;2023-08-12T06:22:13;20.80;99.90
18717;DHT22;9487;50.892;6.906;2023-08-12T06:24:40;20.80;99.90
18717;DHT22;9487;50.892;6.906;2023-08-12T06:27:07;20.70;99.90
18717;DHT22;9487;50.892;6.906;2023-08-12T06:29:35;20.70;99.90
18717;DHT22;9487;50.892;6.906;2023-08-12T06:32:02;20.70;99.90
18717;DHT22;9487;50.892;6.906;2023-08-12T06:34:29;20.60;99.90
18717;DHT22;9487;50.892;6.906;2023-08-12T06:36:56;20.50;99.90
18717;DHT22;9487;50.892;6.906;2023-08-12T06:39:23;20.50;99.90
18717;DHT22;9487;50.892;6.906;2023-08-12T06:41:50;20.50;99.90
18717;DHT22;9487;50.892;6.906;2023-08-12T06:44:18;20.60;99.90
18717;DHT22;9487;50.892;6.906;2023-08-12T06:46:46;20.50;99.90
18717;DHT22;9487;50.892;6.906;2023-08-12T06:49:13;20.50;99.90
18717;DHT22;9487;50.892;6.906;2023-08-12T06:51:39;20.40;99.90
18717;DHT22;9487;50.892;6.906;2023-08-12T06:54:06;20.50;99.90
18717;DHT22;9487;50.892;6.906;2023-08-12T06:56:33;20.50;99.90
18717;DHT22;9487;50.892;6.906;2023-08-12T06:59:00;20.50;99.90
18717;DHT22;9487;50.892;6.906;2023-08-12T07:01:27;20.60;99.90
18717;DHT22;9487;50.892;6.906;2023-08-12T07:03:55;20.70;99.90
18717;DHT22;9487;50.892;6.906;2023-08-12T07:06:22;20.70;99.90
18717;DHT22;9487;50.892;6.906;2023-08-12T07:08:49;20.70;99.90
18717;DHT22;9487;50.892;6.906;2023-08-12T07:11:16;20.70;99.90
18717;DHT22;9487;50.892;6.906;2023-08-12T07:13:43;20.70;99.90
18717;DHT22;9487;50.892;6.906;2023-08-12T07:16:11;20.70;99.90
18717;DHT22;9487;50.892;6.906;2023-08-12T07:18:38;20.70;99.90
18717;DHT22;9487;50.892;6.906;2023-08-12T07:21:07;20.80;99.90
18717;DHT22;9487;50.892;6.906;2023-08-12T07:23:33;20.80;99.90
18717;DHT22;9487;50.892;6.906;2023-08-12T07:26:00;20.80;99.90
18717;DHT22;9487;50.892;6.906;2023-08-12T07:28:27;20.90;99.90
18717;DHT22;9487;50.892;6.906;2023-08-12T07:30:54;20.90;99.90
18717;DHT22;9487;50.892;6.906;2023-08-12T07:33:21;21.10;99.90
18717;DHT22;9487;50.892;6.906;2023-08-12T07:35:48;21.10;99.90
18717;DHT22;9487;50.892;6.906;2023-08-12T07:38:16;21.20;99.90
18717;DHT22;9487;50.892;6.906;2023-08-12T07:40:43;21.30;99.90
18717;DHT22;9487;50.892;6.906;2023-08-12T07:43:10;21.40;99.90
18717;DHT22;9487;50.892;6.906;2023-08-12T07:45:36;21.60;99.90
18717;DHT22;9487;50.892;6.906;2023-08-12T07:48:04;21.60;99.90
18717;DHT22;9487;50.892;6.906;2023-08-12T07:50:31;21.70;99.90
18717;DHT22;9487;50.892;6.906;2023-08-12T07:52:58;22.00;99.90
18717;DHT22;9487;50.892;6.906;2023-08-12T07:55:27;22.20;99.90
18717;DHT22;9487;50.892;6.906;2023-08-12T07:57:54;22.30;99.90
18717;DHT22;9487;50.892;6.906;2023-08-12T08:00:20;22.40;99.90
18717;DHT22;9487;50.892;6.906;2023-08-12T08:02:47;22.40;99.90
18717;DHT22;9487;50.892;6.906;2023-08-12T08:05:14;22.50;99.90
18717;DHT22;9487;50.892;6.906;2023-08-12T08:07:41;22.50;99.90
18717;DHT22;9487;50.892;6.906;2023-08-12T08:10:09;22.50;99.90
18717;DHT22;9487;50.892;6.906;2023-08-12T08:12:37;22.50;99.90
18717;DHT22;9487;50.892;6.906;2023-08-12T08:15:05;22.50;99.90
18717;DHT22;9487;50.892;6.906;2023-08-12T08:17:32;22.40;99.90
18717;DHT22;9487;50.892;6.906;2023-08-12T08:19:59;22.50;99.90
18717;DHT22;9487;50.892;6.906;2023-08-12T08:22:26;22.50;99.90
18717;DHT22;9487;50.892;6.906;2023-08-12T08:24:53;22.60;99.90
18717;DHT22;9487;50.892;6.906;2023-08-12T08:27:19;22.50;99.90
18717;DHT22;9487;50.892;6.906;2023-08-12T08:29:48;22.50;99.90
18717;DHT22;9487;50.892;6.906;2023-08-12T08:32:15;22.50;99.90
18717;DHT22;9487;50.892;6.906;2023-08-12T08:34:42;22.50;99.90
18717;DHT22;9487;50.892;6.906;2023-08-12T08:37:09;22.60;99.90
18717;DHT22;9487;50.892;6.906;2023-08-12T08:39:35;22.50;99.90
18717;DHT22;9487;50.892;6.906;2023-08-12T08:42:05;22.50;99.90
18717;DHT22;9487;50.892;6.906;2023-08-12T08:44:33;22.50;99.90
18717;DHT22;9487;50.892;6.906;2023-08-12T08:47:01;22.60;99.90
18717;DHT22;9487;50.892;6.906;2023-08-12T08:49:30;22.60;99.90
18717;DHT22;9487;50.892;6.906;2023-08-12T08:51:59;22.70;99.90
18717;DHT22;9487;50.892;6.906;2023-08-12T08:54:27;22.70;99.90
18717;DHT22;9487;50.892;6.906;2023-08-12T08:56:54;22.70;99.90
18717;DHT22;9487;50.892;6.906;2023-08-12T08:59:21;22.70;99.90
18717;DHT22;9487;50.892;6.906;2023-08-12T09:01:49;22.70;99.90
18717;DHT22;9487;50.892;6.906;2023-08-12T09:04:20;22.70;99.90
18717;DHT22;9487;50.892;6.906;2023-08-12T09:06:48;22.80;99.90
18717;DHT22;9487;50.892;6.906;2023-08-12T09:09:16;22.90;99.90
18717;DHT22;9487;50.892;6.906;2023-08-12T09:11:45;23.00;99.90
18717;DHT22;9487;50.892;6.906;2023-08-12T09:14:13;23.30;99.90
18717;DHT22;9487;50.892;6.906;2023-08-12T09:16:40;23.40;99.90
18717;DHT22;9487;50.892;6.906;2023-08-12T09:19:07;23.50;99.90
18717;DHT22;9487;50.892;6.906;2023-08-12T09:21:36;23.50;99.90
18717;DHT22;9487;50.892;6.906;2023-08-12T09:24:04;23.50;99.90
18717;DHT22;9487;50.892;6.906;2023-08-12T09:26:31;23.60;99.90
18717;DHT22;9487;50.892;6.906;2023-08-12T09:28:58;23.70;99.90
18717;DHT22;9487;50.892;6.906;2023-08-12T09:31:27;23.90;99.90
18717;DHT22;9487;50.892;6.906;2023-08-12T09:33:57;24.10;99.90
18717;DHT22;9487;50.892;6.906;2023-08-12T09:36:27;24.40;99.90
18717;DHT22;9487;50.892;6.906;2023-08-12T09:38:56;24.50;1.00
18717;DHT22;9487;50.892;6.906;2023-08-12T09:41:24;24.70;99.90
18717;DHT22;9487;50.892;6.906;2023-08-12T09:43:51;24.90;63.40
18717;DHT22;9487;50.892;6.906;2023-08-12T09:46:21;25.10;1.00
18717;DHT22;9487;50.892;6.906;2023-08-12T09:48:49;25.10;1.00
18717;DHT22;9487;50.892;6.906;2023-08-12T09:51:17;25.20;1.00
18717;DHT22;9487;50.892;6.906;2023-08-12T09:53:44;25.10;1.00
18717;DHT22;9487;50.892;6.906;2023-08-12T09:56:13;25.20;1.00
18717;DHT22;9487;50.892;6.906;2023-08-12T09:58:44;25.10;99.90
18717;DHT22;9487;50.892;6.906;2023-08-12T10:01:12;24.80;1.00
18717;DHT22;9487;50.892;6.906;2023-08-12T10:03:40;24.60;1.00
18717;DHT22;9487;50.892;6.906;2023-08-12T10:06:08;24.40;99.90
18717;DHT22;9487;50.892;6.906;2023-08-12T10:08:35;24.40;74.90
18717;DHT22;9487;50.892;6.906;2023-08-12T10:11:02;24.40;1.00
18717;DHT22;9487;50.892;6.906;2023-08-12T10:13:31;24.30;1.00
18717;DHT22;9487;50.892;6.906;2023-08-12T10:15:58;24.20;1.00
18717;DHT22;9487;50.892;6.906;2023-08-12T10:18:28;24.10;96.20
18717;DHT22;9487;50.892;6.906;2023-08-12T10:20:57;24.00;99.90
18717;DHT22;9487;50.892;6.906;2023-08-12T10:23:25;24.00;99.90
18717;DHT22;9487;50.892;6.906;2023-08-12T10:25:54;24.00;99.90
18717;DHT22;9487;50.892;6.906;2023-08-12T10:28:22;24.30;99.90
18717;DHT22;9487;50.892;6.906;2023-08-12T10:30:50;24.40;1.00
18717;DHT22;9487;50.892;6.906;2023-08-12T10:33:18;24.60;1.00
18717;DHT22;9487;50.892;6.906;2023-08-12T10:35:46;24.80;1.00
18717;DHT22;9487;50.892;6.906;2023-08-12T10:38:16;24.80;1.00
18717;DHT22;9487;50.892;6.906;2023-08-12T10:40:43;24.80;1.00
18717;DHT22;9487;50.892;6.906;2023-08-12T10:43:12;24.80;1.00
18717;DHT22;9487;50.892;6.906;2023-08-12T10:45:44;24.70;1.00
18717;DHT22;9487;50.892;6.906;2023-08-12T10:48:18;24.60;1.00
18717;DHT22;9487;50.892;6.906;2023-08-12T10:50:48;24.60;99.90
18717;DHT22;9487;50.892;6.906;2023-08-12T10:53:23;24.60;99.90
18717;DHT22;9487;50.892;6.906;2023-08-12T10:55:56;24.50;99.90
18717;DHT22;9487;50.892;6.906;2023-08-12T10:58:28;24.50;99.90
18717;DHT22;9487;50.892;6.906;2023-08-12T11:00:56;24.50;1.00
18717;DHT22;9487;50.892;6.906;2023-08-12T11:03:25;24.40;99.90
18717;DHT22;9487;50.892;6.906;2023-08-12T11:05:53;24.30;1.00
18717;DHT22;9487;50.892;6.906;2023-08-12T11:08:27;24.30;99.90
18717;DHT22;9487;50.892;6.906;2023-08-12T11:10:55;24.10;1.00
18717;DHT22;9487;50.892;6.906;2023-08-12T11:13:26;24.10;1.00
18717;DHT22;9487;50.892;6.906;2023-08-12T11:16:05;24.10;1.00
18717;DHT22;9487;50.892;6.906;2023-08-12T11:18:35;24.10;1.00
18717;DHT22;9487;50.892;6.906;2023-08-12T11:21:02;24.10;1.00
18717;DHT22;9487;50.892;6.906;2023-08-12T11:23:30;24.00;58.00
18717;DHT22;9487;50.892;6.906;2023-08-12T11:25:58;24.00;95.20
18717;DHT22;9487;50.892;6.906;2023-08-12T11:28:25;24.10;1.00
18717;DHT22;9487;50.892;6.906;2023-08-12T11:30:52;24.20;1.00
18717;DHT22;9487;50.892;6.906;2023-08-12T11:33:18;24.10;1.00
18717;DHT22;9487;50.892;6.906;2023-08-12T11:35:47;24.20;1.00
18717;DHT22;9487;50.892;6.906;2023-08-12T11:38:15;24.30;1.00
18717;DHT22;9487;50.892;6.906;2023-08-12T11:40:42;24.30;1.00
18717;DHT22;9487;50.892;6.906;2023-08-12T11:43:08;24.30;1.00
18717;DHT22;9487;50.892;6.906;2023-08-12T11:45:35;24.40;1.00
18717;DHT22;9487;50.892;6.906;2023-08-12T11:48:04;24.50;1.00
18717;DHT22;9487;50.892;6.906;2023-08-12T11:50:31;24.50;1.00
18717;DHT22;9487;50.892;6.906;2023-08-12T11:52:59;24.70;99.90
18717;DHT22;9487;50.892;6.906;2023-08-12T11:55:28;24.80;99.90
18717;DHT22;9487;50.892;6.906;2023-08-12T11:57:58;24.90;99.90
18717;DHT22;9487;50.892;6.906;2023-08-12T12:00:25;24.90;99.90
18717;DHT22;9487;50.892;6.906;2023-08-12T12:02:53;24.90;1.00
18717;DHT22;9487;50.892;6.906;2023-08-12T12:05:23;24.90;1.00
18717;DHT22;9487;50.892;6.906;2023-08-12T12:07:51;24.90;1.00
18717;DHT22;9487;50.892;6.906;2023-08-12T12:10:25;24.80;1.00
18717;DHT22;9487;50.892;6.906;2023-08-12T12:12:54;24.80;1.00
18717;DHT22;9487;50.892;6.906;2023-08-12T12:15:22;24.80;1.00
18717;DHT22;9487;50.892;6.906;2023-08-12T12:17:49;24.80;89.40
18717;DHT22;9487;50.892;6.906;2023-08-12T12:20:19;24.80;99.90
18717;DHT22;9487;50.892;6.906;2023-08-12T12:22:47;24.90;1.00
18717;DHT22;9487;50.892;6.906;2023-08-12T12:25:16;25.00;99.90
18717;DHT22;9487;50.892;6.906;2023-08-12T12:27:46;25.00;99.90
18717;DHT22;9487;50.892;6.906;2023-08-12T12:30:15;25.00;99.90
18717;DHT22;9487;50.892;6.906;2023-08-12T12:32:42;25.00;99.90
18717;DHT22;9487;50.892;6.906;2023-08-12T12:35:09;25.00;99.90
18717;DHT22;9487;50.892;6.906;2023-08-12T12:37:37;25.00;1.00
18717;DHT22;9487;50.892;6.906;2023-08-12T12:40:05;25.00;1.00
18717;DHT22;9487;50.892;6.906;2023-08-12T12:42:33;25.00;1.00
18717;DHT22;9487;50.892;6.906;2023-08-12T12:45:02;25.00;99.90
18717;DHT22;9487;50.892;6.906;2023-08-12T12:47:29;25.00;1.00
18717;DHT22;9487;50.892;6.906;2023-08-12T12:49:55;24.90;1.00
18717;DHT22;9487;50.892;6.906;2023-08-12T12:52:23;24.90;99.90
18717;DHT22;9487;50.892;6.906;2023-08-12T12:54:50;25.00;99.90
18717;DHT22;9487;50.892;6.906;2023-08-12T12:57:17;25.20;98.30
18717;DHT22;9487;50.892;6.906;2023-08-12T12:59:44;25.50;99.90
18717;DHT22;9487;50.892;6.906;2023-08-12T13:02:12;25.80;99.90
18717;DHT22;9487;50.892;6.906;2023-08-12T13:04:39;25.80;1.00
18717;DHT22;9487;50.892;6.906;2023-08-12T13:07:06;26.00;1.00
18717;DHT22;9487;50.892;6.906;2023-08-12T13:09:33;26.10;1.00
18717;DHT22;9487;50.892;6.906;2023-08-12T13:12:00;26.30;99.90
18717;DHT22;9487;50.892;6.906;2023-08-12T13:14:29;26.30;1.00
18717;DHT22;9487;50.892;6.906;2023-08-12T13:16:56;26.10;99.90
18717;DHT22;9487;50.892;6.906;2023-08-12T13:19:25;25.80;1.00
18717;DHT22;9487;50.892;6.906;2023-08-12T13:21:53;25.40;1.00
18717;DHT22;9487;50.892;6.906;2023-08-12T13:24:20;25.20;99.90
18717;DHT22;9487;50.892;6.906;2023-08-12T13:26:47;24.80;1.00
18717;DHT22;9487;50.892;6.906;2023-08-12T13:29:14;24.70;1.00
18717;DHT22;9487;50.892;6.906;2023-08-12T13:31:41;24.50;99.90
18717;DHT22;9487;50.892;6.906;2023-08-12T13:34:08;24.40;99.90
18717;DHT22;9487;50.892;6.906;2023-08-12T13:36:36;24.30;1.00
18717;DHT22;9487;50.892;6.906;2023-08-12T13:39:03;24.30;1.00
18717;DHT22;9487;50.892;6.906;2023-08-12T13:41:31;24.00;1.00
18717;DHT22;9487;50.892;6.906;2023-08-12T13:43:58;23.90;74.60
18717;DHT22;9487;50.892;6.906;2023-08-12T13:46:24;23.80;99.90
18717;DHT22;9487;50.892;6.906;2023-08-12T13:48:52;23.70;1.00
18717;DHT22;9487;50.892;6.906;2023-08-12T13:51:19;23.70;79.60
18717;DHT22;9487;50.892;6.906;2023-08-12T13:53:48;24.00;1.00
18717;DHT22;9487;50.892;6.906;2023-08-12T13:56:15;24.10;1.00
18717;DHT22;9487;50.892;6.906;2023-08-12T13:58:43;24.10;1.00
18717;DHT22;9487;50.892;6.906;2023-08-12T14:01:09;24.10;1.00
18717;DHT22;9487;50.892;6.906;2023-08-12T14:03:40;24.10;99.90
18717;DHT22;9487;50.892;6.906;2023-08-12T14:06:07;24.40;12.20
18717;DHT22;9487;50.892;6.906;2023-08-12T14:08:35;24.30;99.90
18717;DHT22;9487;50.892;6.906;2023-08-12T14:11:03;24.40;1.00
18717;DHT22;9487;50.892;6.906;2023-08-12T14:13:30;24.40;1.00
18717;DHT22;9487;50.892;6.906;2023-08-12T14:15:57;24.60;99.90
18717;DHT22;9487;50.892;6.906;2023-08-12T14:18:24;24.40;1.00
18717;DHT22;9487;50.892;6.906;2023-08-12T14:20:50;24.70;1.00
18717;DHT22;9487;50.892;6.906;2023-08-12T14:23:18;24.80;1.00
18717;DHT22;9487;50.892;6.906;2023-08-12T14:25:46;25.00;99.90
18717;DHT22;9487;50.892;6.906;2023-08-12T14:28:15;25.10;1.00
18717;DHT22;9487;50.892;6.906;2023-08-12T14:30:43;25.00;1.00
18717;DHT22;9487;50.892;6.906;2023-08-12T14:33:10;25.00;1.00
18717;DHT22;9487;50.892;6.906;2023-08-12T14:35:37;24.90;1.00
18717;DHT22;9487;50.892;6.906;2023-08-12T14:38:04;24.80;1.00
18717;DHT22;9487;50.892;6.906;2023-08-12T14:40:31;24.40;1.00
18717;DHT22;9487;50.892;6.906;2023-08-12T14:42:58;24.40;99.90
18717;DHT22;9487;50.892;6.906;2023-08-12T14:45:26;24.10;1.00
18717;DHT22;9487;50.892;6.906;2023-08-12T14:47:53;24.30;1.00
18717;DHT22;9487;50.892;6.906;2023-08-12T14:50:20;24.40;99.90
18717;DHT22;9487;50.892;6.906;2023-08-12T14:52:47;24.70;1.00
18717;DHT22;9487;50.892;6.906;2023-08-12T14:55:14;24.90;1.00
18717;DHT22;9487;50.892;6.906;2023-08-12T14:57:41;25.00;99.90
18717;DHT22;9487;50.892;6.906;2023-08-12T15:00:09;25.10;1.00
18717;DHT22;9487;50.892;6.906;2023-08-12T15:02:38;25.30;1.00
18717;DHT22;9487;50.892;6.906;2023-08-12T15:05:05;25.30;99.90
18717;DHT22;9487;50.892;6.906;2023-08-12T15:07:32;25.30;1.00
18717;DHT22;9487;50.892;6.906;2023-08-12T15:09:59;25.30;99.90
18717;DHT22;9487;50.892;6.906;2023-08-12T15:12:27;25.50;1.00
18717;DHT22;9487;50.892;6.906;2023-08-12T15:14:54;25.50;99.90
18717;DHT22;9487;50.892;6.906;2023-08-12T15:17:21;25.20;8.80
18717;DHT22;9487;50.892;6.906;2023-08-12T15:19:49;24.80;1.00
18717;DHT22;9487;50.892;6.906;2023-08-12T15:22:16;24.80;23.80
18717;DHT22;9487;50.892;6.906;2023-08-12T15:24:43;25.10;99.90
18717;DHT22;9487;50.892;6.906;2023-08-12T15:27:10;25.30;1.00
18717;DHT22;9487;50.892;6.906;2023-08-12T15:29:36;25.20;1.00
18717;DHT22;9487;50.892;6.906;2023-08-12T15:32:04;25.30;1.00
18717;DHT22;9487;50.892;6.906;2023-08-12T15:34:31;25.40;99.90
18717;DHT22;9487;50.892;6.906;2023-08-12T15:37:00;25.10;99.90
18717;DHT22;9487;50.892;6.906;2023-08-12T15:39:26;24.70;1.00
18717;DHT22;9487;50.892;6.906;2023-08-12T15:41:53;24.80;1.00
18717;DHT22;9487;50.892;6.906;2023-08-12T15:44:20;24.80;99.90
18717;DHT22;9487;50.892;6.906;2023-08-12T15:46:47;24.80;1.00
18717;DHT22;9487;50.892;6.906;2023-08-12T15:49:14;24.80;1.00
18717;DHT22;9487;50.892;6.906;2023-08-12T15:51:43;24.80;1.00
18717;DHT22;9487;50.892;6.906;2023-08-12T15:54:12;24.80;1.00